createdAt,value
2018-11-26T00:01:17.008Z,10.97
2018-11-26T00:04:02.194Z,12.50
2018-11-26T00:06:32.703Z,11.53
2018-11-26T00:09:25.248Z,10.10
2018-11-26T00:12:13.980Z,12.77
2018-11-26T00:15:03.629Z,10.33
2018-11-26T00:17:35.719Z,12.13
2018-11-26T00:20:09.517Z,10.77
2018-11-26T00:22:41.524Z,13.23
2018-11-26T00:25:10.657Z,10.90
2018-11-26T00:27:39.794Z,11.77
2018-11-26T00:30:09.433Z,11.10
2018-11-26T00:32:38.466Z,9.57
2018-11-26T00:35:07.706Z,9.77
2018-11-26T00:37:37.653Z,12.23
2018-11-26T00:40:08.921Z,12.50
2018-11-26T00:42:38.053Z,13.23
2018-11-26T00:45:08.865Z,10.10
2018-11-26T00:47:38.193Z,10.27
2018-11-26T00:50:09.526Z,11.03
2018-11-26T00:52:39.189Z,10.67
2018-11-26T00:55:09.781Z,11.53
2018-11-26T00:57:38.884Z,7.93
2018-11-26T01:00:11.545Z,10.80
2018-11-26T01:02:40.810Z,10.80
2018-11-26T01:05:13.874Z,10.97
2018-11-26T01:07:42.946Z,13.13
2018-11-26T01:10:13.292Z,10.97
2018-11-26T01:12:42.691Z,10.93
2018-11-26T01:15:11.843Z,12.77
2018-11-26T01:17:41.682Z,10.57
2018-11-26T01:20:10.705Z,10.93
2018-11-26T01:22:40.662Z,12.17
2018-11-26T01:25:09.788Z,11.23
2018-11-26T01:27:38.811Z,13.97
2018-11-26T01:30:10.156Z,12.07
2018-11-26T01:32:39.564Z,10.33
2018-11-26T01:35:09.037Z,15.80
2018-11-26T01:37:39.496Z,7.73
2018-11-26T01:40:14.489Z,11.90
2018-11-26T01:42:43.642Z,9.40
2018-11-26T01:45:12.717Z,11.17
2018-11-26T01:47:41.757Z,10.87
2018-11-26T01:50:11.361Z,12.17
2018-11-26T01:52:40.408Z,8.43
2018-11-26T01:55:10.681Z,11.70
2018-11-26T01:57:40.010Z,9.20
2018-11-26T02:00:19.649Z,14.60
2018-11-26T02:02:49.516Z,11.30
2018-11-26T02:05:18.898Z,10.47
2018-11-26T02:07:48.009Z,11.17
2018-11-26T02:10:18.104Z,10.83
2018-11-26T02:12:48.538Z,10.63
2018-11-26T02:15:26.927Z,10.57
2018-11-26T02:17:56.186Z,9.80
2018-11-26T02:20:25.554Z,10.63
2018-11-26T02:22:54.966Z,13.80
2018-11-26T02:25:24.182Z,10.17
2018-11-26T02:27:53.400Z,9.03
2018-11-26T02:30:22.953Z,10.27
2018-11-26T02:32:51.936Z,8.50
2018-11-26T02:35:20.940Z,13.23
2018-11-26T02:37:50.961Z,12.17
2018-11-26T02:40:31.021Z,12.87
2018-11-26T02:43:00.114Z,9.97
2018-11-26T02:45:29.489Z,13.23
2018-11-26T02:47:58.576Z,12.80
2018-11-26T02:50:27.742Z,14.97
2018-11-26T02:52:56.768Z,14.33
2018-11-26T02:55:25.764Z,11.37
2018-11-26T02:57:54.794Z,13.67
2018-11-26T03:00:23.855Z,15.27
2018-11-26T03:02:52.885Z,11.20
2018-11-26T03:05:29.725Z,8.17
2018-11-26T03:07:58.742Z,12.73
2018-11-26T03:10:27.870Z,9.17
2018-11-26T03:12:56.962Z,11.50
2018-11-26T03:15:25.995Z,7.87
2018-11-26T03:17:55.038Z,8.00
2018-11-26T03:20:24.107Z,10.50
2018-11-26T03:22:53.122Z,13.03
2018-11-26T03:25:22.188Z,12.47
2018-11-26T03:27:51.217Z,10.53
2018-11-26T03:30:21.552Z,9.73
2018-11-26T03:32:50.882Z,11.03
2018-11-26T03:35:20.011Z,9.13
2018-11-26T03:37:49.118Z,9.10
2018-11-26T03:40:18.127Z,9.43
2018-11-26T03:42:47.520Z,10.53
2018-11-26T03:45:18.551Z,10.13
2018-11-26T03:47:47.652Z,9.50
2018-11-26T03:50:16.718Z,13.07
2018-11-26T03:52:46.332Z,10.70
2018-11-26T03:55:15.647Z,11.00
2018-11-26T03:57:44.673Z,13.77
2018-11-26T04:00:17.032Z,12.97
2018-11-26T04:02:46.187Z,11.63
2018-11-26T04:05:15.215Z,11.33
2018-11-26T04:07:44.411Z,11.83
2018-11-26T04:10:14.314Z,12.60
2018-11-26T04:12:43.450Z,10.83
2018-11-26T04:15:13.813Z,11.60
2018-11-26T04:17:42.915Z,12.03
2018-11-26T04:20:12.034Z,10.07
2018-11-26T04:22:41.066Z,10.63
2018-11-26T04:25:10.420Z,11.23
2018-11-26T04:27:39.456Z,10.40
2018-11-26T04:30:10.538Z,10.97
2018-11-26T04:32:40.219Z,8.50
2018-11-26T04:35:09.388Z,11.70
2018-11-26T04:37:38.410Z,11.53
2018-11-26T04:40:09.553Z,10.57
2018-11-26T04:42:38.635Z,12.70
2018-11-26T04:45:09.435Z,11.20
2018-11-26T04:47:38.824Z,10.87
2018-11-26T04:50:11.151Z,12.70
2018-11-26T04:52:40.218Z,13.37
2018-11-26T04:55:10.821Z,10.70
2018-11-26T04:57:42.577Z,9.73
2018-11-26T05:00:16.513Z,13.40
2018-11-26T05:02:45.677Z,13.97
2018-11-26T05:05:14.781Z,15.33
2018-11-26T05:07:43.866Z,18.23
2018-11-26T05:10:14.233Z,16.77
2018-11-26T05:12:43.268Z,19.03
2018-11-26T05:15:13.344Z,18.63
2018-11-26T05:17:42.489Z,14.77
2018-11-26T05:20:13.539Z,14.10
2018-11-26T05:22:42.617Z,17.20
2018-11-26T05:25:12.304Z,13.53
2018-11-26T05:27:41.351Z,12.97
2018-11-26T05:30:11.903Z,12.50
2018-11-26T05:32:40.978Z,14.60
2018-11-26T05:35:11.221Z,15.40
2018-11-26T05:37:40.316Z,12.63
2018-11-26T05:40:13.205Z,11.53
2018-11-26T05:42:43.045Z,15.20
2018-11-26T05:45:14.249Z,12.27
2018-11-26T05:47:43.332Z,12.07
2018-11-26T05:50:15.008Z,12.67
2018-11-26T05:52:44.117Z,14.30
2018-11-26T05:55:15.109Z,16.37
2018-11-26T05:57:44.833Z,12.53
2018-11-26T06:00:18.294Z,11.37
2018-11-26T06:02:47.523Z,12.90
2018-11-26T06:05:16.647Z,16.93
2018-11-26T06:07:45.648Z,14.60
2018-11-26T06:10:14.747Z,13.13
2018-11-26T06:12:43.837Z,13.90
2018-11-26T06:15:13.952Z,13.50
2018-11-26T06:17:44.297Z,12.63
2018-11-26T06:20:13.925Z,13.67
2018-11-26T06:22:45.104Z,11.77
2018-11-26T06:25:17.262Z,13.83
2018-11-26T06:27:46.594Z,14.93
2018-11-26T06:30:16.931Z,14.87
2018-11-26T06:32:45.986Z,16.93
2018-11-26T06:35:18.841Z,15.27
2018-11-26T06:37:48.298Z,15.50
2018-11-26T06:40:18.094Z,16.50
2018-11-26T06:42:47.317Z,14.60
2018-11-26T06:45:20.486Z,16.63
2018-11-26T06:47:50.105Z,15.20
2018-11-26T06:50:20.420Z,14.40
2018-11-26T06:52:49.741Z,15.70
2018-11-26T06:55:19.884Z,15.67
2018-11-26T06:57:48.977Z,16.07
2018-11-26T07:00:19.333Z,16.03
2018-11-26T07:02:48.734Z,13.57
2018-11-26T07:05:20.607Z,14.07
2018-11-26T07:07:49.847Z,16.17
2018-11-26T07:10:19.889Z,17.63
2018-11-26T07:12:49.537Z,19.07
2018-11-26T07:15:20.190Z,17.27
2018-11-26T07:17:49.368Z,18.93
2018-11-26T07:20:19.441Z,13.67
2018-11-26T07:22:48.479Z,17.07
2018-11-26T07:25:19.281Z,19.07
2018-11-26T07:27:50.746Z,16.43
2018-11-26T07:30:21.109Z,20.33
2018-11-26T07:32:50.259Z,18.63
2018-11-26T07:35:25.923Z,18.17
2018-11-26T07:37:55.041Z,20.13
2018-11-26T07:40:24.169Z,20.63
2018-11-26T07:42:57.535Z,19.63
2018-11-26T07:45:26.559Z,17.43
2018-11-26T07:47:55.686Z,19.27
2018-11-26T07:50:24.902Z,20.00
2018-11-26T07:52:53.956Z,17.63
2018-11-26T07:55:23.346Z,23.93
2018-11-26T07:57:52.342Z,17.10
2018-11-26T08:00:22.242Z,22.87
2018-11-26T08:02:51.767Z,19.80
2018-11-26T08:05:22.697Z,17.80
2018-11-26T08:07:51.895Z,17.40
2018-11-26T08:10:22.942Z,19.60
2018-11-26T08:12:53.084Z,15.67
2018-11-26T08:15:23.209Z,20.70
2018-11-26T08:17:52.334Z,22.23
2018-11-26T08:20:21.528Z,21.33
2018-11-26T08:22:50.578Z,18.37
2018-11-26T08:25:20.855Z,18.77
2018-11-26T08:27:50.722Z,18.33
2018-11-26T08:30:27.913Z,17.47
2018-11-26T08:32:59.018Z,18.10
2018-11-26T08:35:28.987Z,19.80
2018-11-26T08:38:03.052Z,21.40
2018-11-26T08:40:37.240Z,21.00
2018-11-26T08:43:07.511Z,20.17
2018-11-26T08:45:38.471Z,20.43
2018-11-26T08:48:13.599Z,18.27
2018-11-26T08:50:42.804Z,20.40
2018-11-26T08:53:33.663Z,22.87
2018-11-26T08:56:04.123Z,23.17
2018-11-26T08:58:36.532Z,19.47
2018-11-26T09:01:07.263Z,21.90
2018-11-26T09:03:36.990Z,19.40
2018-11-26T09:06:06.379Z,20.67
2018-11-26T09:08:36.754Z,19.73
2018-11-26T09:11:07.016Z,19.03
2018-11-26T09:13:36.191Z,20.77
2018-11-26T09:16:07.104Z,24.00
2018-11-26T09:18:36.379Z,21.70
2018-11-26T09:21:08.367Z,17.47
2018-11-26T09:23:37.770Z,20.47
2018-11-26T09:26:07.605Z,23.23
2018-11-26T09:28:37.017Z,21.53
2018-11-26T09:31:06.787Z,28.50
2018-11-26T09:33:36.189Z,31.27
2018-11-26T09:36:05.862Z,25.53
2018-11-26T09:38:34.864Z,24.53
2018-11-26T09:41:04.283Z,22.27
2018-11-26T09:43:33.421Z,21.93
2018-11-26T09:46:03.252Z,17.17
2018-11-26T09:48:32.554Z,20.53
2018-11-26T09:51:01.870Z,19.73
2018-11-26T09:53:31.564Z,18.63
2018-11-26T09:56:01.541Z,22.80
2018-11-26T09:58:30.919Z,19.80
2018-11-26T10:01:00.215Z,21.47
2018-11-26T10:03:29.354Z,21.90
2018-11-26T10:05:58.492Z,21.23
2018-11-26T10:08:27.788Z,20.37
2018-11-26T10:10:57.138Z,24.57
2018-11-26T10:13:26.284Z,19.80
2018-11-26T10:15:55.505Z,17.10
2018-11-26T10:18:24.637Z,19.37
2018-11-26T10:20:54.577Z,19.80
2018-11-26T10:23:24.020Z,17.10
2018-11-26T10:25:53.182Z,19.37
2018-11-26T10:28:23.447Z,22.63
2018-11-26T10:30:52.586Z,21.60
2018-11-26T10:33:22.039Z,26.00
2018-11-26T10:35:51.317Z,26.27
2018-11-26T10:38:20.753Z,20.53
2018-11-26T10:40:50.144Z,22.13
2018-11-26T10:43:19.375Z,20.27
2018-11-26T10:45:48.653Z,21.70
2018-11-26T10:48:17.860Z,29.20
2018-11-26T10:50:47.110Z,25.50
2018-11-26T10:53:16.170Z,23.83
2018-11-26T10:55:45.205Z,21.60
2018-11-26T10:58:14.942Z,20.10
2018-11-26T11:00:49.571Z,22.50
2018-11-26T11:03:19.947Z,33.03
2018-11-26T11:05:49.084Z,23.43
2018-11-26T11:08:18.373Z,24.33
2018-11-26T11:10:47.639Z,22.87
2018-11-26T11:13:17.853Z,25.20
2018-11-26T11:15:47.112Z,22.47
2018-11-26T11:18:16.462Z,25.50
2018-11-26T11:20:46.025Z,28.33
2018-11-26T11:23:15.269Z,25.90
2018-11-26T11:25:45.399Z,24.50
2018-11-26T11:28:15.512Z,32.60
2018-11-26T11:30:45.172Z,39.57
2018-11-26T11:35:42.673Z,26.93
2018-11-26T11:38:13.053Z,27.70
2018-11-26T11:40:42.193Z,26.63
2018-11-26T11:43:12.617Z,23.63
2018-11-26T11:45:41.692Z,27.37
2018-11-26T11:48:10.927Z,23.50
2018-11-26T11:50:40.347Z,27.53
2018-11-26T11:53:10.126Z,22.63
2018-11-26T11:55:39.880Z,26.73
2018-11-26T11:58:09.327Z,28.87
2018-11-26T12:00:41.449Z,26.03
2018-11-26T12:03:15.044Z,26.87
2018-11-26T12:05:44.577Z,24.50
2018-11-26T12:08:18.144Z,33.17
2018-11-26T12:10:47.341Z,24.40
2018-11-26T12:13:17.010Z,24.53
2018-11-26T12:15:47.800Z,27.67
2018-11-26T12:18:17.142Z,24.90
2018-11-26T12:20:46.610Z,25.77
2018-11-26T12:23:15.962Z,29.23
2018-11-26T12:25:50.839Z,23.20
2018-11-26T12:28:20.308Z,27.10
2018-11-26T12:30:50.848Z,23.13
2018-11-26T12:33:20.285Z,22.13
2018-11-26T12:35:49.947Z,25.67
2018-11-26T12:38:20.399Z,23.90
2018-11-26T12:40:50.363Z,24.40
2018-11-26T12:43:23.368Z,24.63
2018-11-26T12:45:52.695Z,21.77
2018-11-26T12:48:21.867Z,25.07
2018-11-26T12:50:52.633Z,25.80
2018-11-26T12:53:22.337Z,25.03
2018-11-26T12:55:52.472Z,25.33
2018-11-26T12:58:22.607Z,23.03
2018-11-26T13:00:51.855Z,20.30
2018-11-26T13:03:20.948Z,22.57
2018-11-26T13:05:54.496Z,28.43
2018-11-26T13:08:23.639Z,26.30
2018-11-26T13:10:54.047Z,20.30
2018-11-26T13:13:23.188Z,23.03
2018-11-26T13:15:53.304Z,24.97
2018-11-26T13:18:22.398Z,25.67
2018-11-26T13:20:51.583Z,28.70
2018-11-26T13:23:21.097Z,22.53
2018-11-26T13:25:51.108Z,22.90
2018-11-26T13:28:20.519Z,23.90
2018-11-26T13:30:50.925Z,19.33
2018-11-26T13:33:20.696Z,27.73
2018-11-26T13:35:53.230Z,25.73
2018-11-26T13:38:22.455Z,25.57
2018-11-26T13:40:51.757Z,23.43
2018-11-26T13:43:21.525Z,27.90
2018-11-26T13:45:50.912Z,28.37
2018-11-26T13:48:20.502Z,26.30
2018-11-26T13:50:53.048Z,25.87
2018-11-26T13:53:22.500Z,28.60
2018-11-26T13:55:53.167Z,26.83
2018-11-26T13:58:23.911Z,26.47
2018-11-26T14:00:53.137Z,24.73
2018-11-26T14:03:22.918Z,24.33
2018-11-26T14:05:52.321Z,30.60
2018-11-26T14:08:21.769Z,25.53
2018-11-26T14:10:51.111Z,27.40
2018-11-26T14:13:20.428Z,25.33
2018-11-26T14:15:50.593Z,25.03
2018-11-26T14:18:21.370Z,23.17
2018-11-26T14:20:51.683Z,26.77
2018-11-26T14:23:21.014Z,23.03
2018-11-26T14:25:50.161Z,27.57
2018-11-26T14:28:19.694Z,21.20
2018-11-26T14:30:48.967Z,24.17
2018-11-26T14:33:18.596Z,20.80
2018-11-26T14:38:38.587Z,19.80
2018-11-26T14:41:07.860Z,19.00
2018-11-26T14:43:37.440Z,19.17
2018-11-26T14:46:08.467Z,25.53
2018-11-26T14:48:38.437Z,25.90
2018-11-26T14:51:07.672Z,27.03
2018-11-26T14:53:36.837Z,26.83
2018-11-26T14:56:06.754Z,26.83
2018-11-26T14:58:36.102Z,24.57
2018-11-26T15:01:05.406Z,29.23
2018-11-26T15:03:34.584Z,28.50
2018-11-26T15:06:04.398Z,27.27
2018-11-26T15:12:20.194Z,26.23
2018-11-26T15:14:54.118Z,23.07
2018-11-26T15:17:25.033Z,42.03
2018-11-26T15:19:55.157Z,32.10
2018-11-26T15:22:25.852Z,28.67
2018-11-26T15:24:55.440Z,33.67
2018-11-26T15:27:25.136Z,28.23
2018-11-26T15:29:56.976Z,27.77
2018-11-26T15:32:27.105Z,26.00
2018-11-26T15:34:56.301Z,29.33
2018-11-26T15:37:25.744Z,29.40
2018-11-26T15:39:55.369Z,31.83
2018-11-26T15:42:24.881Z,30.57
2018-11-26T15:44:56.122Z,29.37
2018-11-26T15:47:26.109Z,27.20
2018-11-26T15:49:55.177Z,29.47
2018-11-26T15:52:24.733Z,32.40
2018-11-26T15:54:54.030Z,26.40
2018-11-26T15:57:24.742Z,25.07
2018-11-26T15:59:54.611Z,27.83
2018-11-26T16:02:24.437Z,23.47
2018-11-26T16:29:18.798Z,22.77
2018-11-26T16:31:48.090Z,33.80
2018-11-26T16:34:17.475Z,44.80
2018-11-26T16:36:46.739Z,48.27
2018-11-26T16:39:16.041Z,44.27
2018-11-26T16:41:45.519Z,48.20
2018-11-26T16:44:15.144Z,41.57
2018-11-26T16:46:44.435Z,37.07
2018-11-26T16:49:13.620Z,27.90
2018-11-26T16:51:42.839Z,32.03
2018-11-26T16:54:12.195Z,29.40
2018-11-26T16:56:41.366Z,31.40
2018-11-26T16:59:10.633Z,30.27
2018-11-26T17:01:40.858Z,25.40
2018-11-26T17:04:10.479Z,29.67
2018-11-26T17:06:39.927Z,33.80
2018-11-26T17:09:10.552Z,37.97
2018-11-26T17:11:40.067Z,34.20
2018-11-26T17:14:09.206Z,30.33
2018-11-26T17:16:38.396Z,28.57
2018-11-26T17:19:08.830Z,32.03
2018-11-26T17:21:37.908Z,34.07
2018-11-26T17:24:07.190Z,30.63
2018-11-26T17:26:36.428Z,34.07
2018-11-26T17:29:06.023Z,29.13
2018-11-26T17:31:35.156Z,31.10
2018-11-26T17:34:04.304Z,27.73
2018-11-26T17:36:33.495Z,27.83
2018-11-26T17:39:02.669Z,22.37
2018-11-26T17:41:32.476Z,24.60
2018-11-26T17:44:01.880Z,26.67
2018-11-26T17:46:32.718Z,28.00
2018-11-26T17:49:02.149Z,25.03
2018-11-26T17:51:31.246Z,28.33
2018-11-26T17:54:00.291Z,27.23
2018-11-26T17:56:29.422Z,25.50
2018-11-26T17:58:58.543Z,28.40
2018-11-26T18:01:35.646Z,24.77
2018-11-26T18:04:04.791Z,25.57
2018-11-26T18:06:34.335Z,32.60
2018-11-26T18:09:03.776Z,29.80
2018-11-26T18:11:33.905Z,33.07
2018-11-26T18:14:03.067Z,30.20
2018-11-26T18:16:32.185Z,30.90
2018-11-26T18:19:01.417Z,34.10
2018-11-26T18:21:30.519Z,41.20
2018-11-26T18:24:00.046Z,35.97
2018-11-26T18:26:30.091Z,34.33
2018-11-26T18:28:59.257Z,42.30
2018-11-26T18:31:28.380Z,54.67
2018-11-26T18:33:57.532Z,63.37
2018-11-26T18:36:26.743Z,80.33
2018-11-26T18:38:56.083Z,51.50
2018-11-26T18:41:28.471Z,40.37
2018-11-26T18:43:57.675Z,39.73
2018-11-26T18:46:26.896Z,41.27
2018-11-26T18:48:56.302Z,35.30
2018-11-26T18:51:26.534Z,33.87
2018-11-26T18:53:55.940Z,31.20
2018-11-26T18:56:25.919Z,33.60
2018-11-26T18:58:55.014Z,34.17
2018-11-26T19:01:24.136Z,31.10
2018-11-26T19:03:53.276Z,28.80
2018-11-26T19:06:22.522Z,27.07
2018-11-26T19:08:51.706Z,28.47
2018-11-26T19:11:20.849Z,25.53
2018-11-26T19:13:54.944Z,29.47
2018-11-26T19:16:26.069Z,26.07
2018-11-26T19:18:55.185Z,28.00
2018-11-26T19:21:24.487Z,28.53
2018-11-26T19:23:53.710Z,28.93
2018-11-26T19:26:23.484Z,33.17
2018-11-26T19:28:52.558Z,33.30
2018-11-26T19:31:21.692Z,28.93
2018-11-26T19:33:50.760Z,26.40
2018-11-26T19:36:19.850Z,24.17
2018-11-26T19:38:48.946Z,28.47
2018-11-26T19:41:18.039Z,28.90
2018-11-26T19:43:47.059Z,28.27
2018-11-26T19:46:16.140Z,27.17
2018-11-26T19:48:45.539Z,27.53
2018-11-26T19:51:15.250Z,24.43
2018-11-26T19:53:44.280Z,22.97
2018-11-26T19:56:13.313Z,24.70
2018-11-26T19:58:42.364Z,25.90
2018-11-26T20:01:11.534Z,25.87
2018-11-26T20:03:45.889Z,28.27
2018-11-26T20:06:20.443Z,27.40
2018-11-26T20:08:54.766Z,28.73
2018-11-26T20:11:23.859Z,32.00
2018-11-26T20:13:52.951Z,34.77
2018-11-26T20:16:26.874Z,28.00
2018-11-26T20:18:56.058Z,29.70
2018-11-26T20:21:25.333Z,31.40
2018-11-26T20:24:01.848Z,26.57
2018-11-26T20:26:31.083Z,27.67
2018-11-26T20:29:00.230Z,30.53
2018-11-26T20:31:29.326Z,33.27
2018-11-26T20:33:58.545Z,30.30
2018-11-26T20:36:27.617Z,29.57
2018-11-26T20:38:56.693Z,31.30
2018-11-26T20:41:25.813Z,33.83
2018-11-26T20:43:54.891Z,30.00
2018-11-26T20:46:23.975Z,30.07
2018-11-26T20:48:53.379Z,28.53
2018-11-26T20:51:22.458Z,29.37
2018-11-26T20:53:51.489Z,28.90
2018-11-26T20:56:21.419Z,25.37
2018-11-26T20:58:56.054Z,34.87
2018-11-26T21:01:25.158Z,31.17
2018-11-26T21:03:54.356Z,29.67
2018-11-26T21:06:23.927Z,25.90
2018-11-26T21:08:53.289Z,25.23
2018-11-26T21:11:22.376Z,28.50
2018-11-26T21:13:51.529Z,22.07
2018-11-26T21:16:20.688Z,30.57
2018-11-26T21:18:50.674Z,21.43
2018-11-26T21:21:19.835Z,20.30
2018-11-26T21:23:49.069Z,22.63
2018-11-26T21:26:18.165Z,19.37
2018-11-26T21:28:47.369Z,19.40
2018-11-26T21:31:16.470Z,15.50
2018-11-26T21:33:45.589Z,17.77
2018-11-26T21:36:14.738Z,13.90
2018-11-26T21:38:44.127Z,18.77
2018-11-26T21:41:13.386Z,14.47
2018-11-26T21:43:42.586Z,15.73
2018-11-26T21:46:12.165Z,14.40
2018-11-26T21:48:41.572Z,16.33
2018-11-26T21:51:10.693Z,14.13
2018-11-26T21:53:39.896Z,15.87
2018-11-26T21:56:09.101Z,14.00
2018-11-26T21:58:39.528Z,15.93
2018-11-26T22:01:10.309Z,14.73
2018-11-26T22:03:39.442Z,16.70
2018-11-26T22:06:08.670Z,17.80
2018-11-26T22:08:37.993Z,14.30
2018-11-26T22:11:07.253Z,13.27
2018-11-26T22:13:36.569Z,15.70
2018-11-26T22:16:06.024Z,13.10
2018-11-26T22:18:35.207Z,13.63
2018-11-26T22:21:04.636Z,17.20
2018-11-26T22:23:33.982Z,16.73
2018-11-26T22:26:03.258Z,16.73
2018-11-26T22:28:32.457Z,15.93
2018-11-26T22:31:01.927Z,16.03
2018-11-26T22:33:31.058Z,16.17
2018-11-26T22:36:00.987Z,17.33
2018-11-26T22:38:30.182Z,15.47
2018-11-26T22:40:59.259Z,15.67
2018-11-26T22:43:28.595Z,16.20
2018-11-26T22:45:57.669Z,15.00
2018-11-26T22:48:26.780Z,17.37
2018-11-26T22:50:55.923Z,16.63
2018-11-26T22:53:24.993Z,18.13
2018-11-26T22:55:54.205Z,16.00
2018-11-26T22:58:23.209Z,14.77
2018-11-26T23:00:54.638Z,15.77
2018-11-26T23:03:25.923Z,14.20
2018-11-26T23:05:55.080Z,17.00
2018-11-26T23:08:24.179Z,16.63
2018-11-26T23:10:53.271Z,19.30
2018-11-26T23:13:22.317Z,14.73
2018-11-26T23:15:51.438Z,15.03
2018-11-26T23:18:21.483Z,17.80
2018-11-26T23:20:50.708Z,19.97
2018-11-26T23:23:19.795Z,16.97
2018-11-26T23:25:48.864Z,15.97
2018-11-26T23:28:37.884Z,15.80
2018-11-26T23:31:25.799Z,16.17
2018-11-26T23:34:12.383Z,16.90
2018-11-26T23:36:59.409Z,17.80
2018-11-26T23:39:28.686Z,17.07
2018-11-26T23:42:13.329Z,15.30
2018-11-26T23:44:57.300Z,17.63
2018-11-26T23:47:43.231Z,15.07
2018-11-26T23:50:29.971Z,14.93
2018-11-26T23:53:15.540Z,16.23
2018-11-26T23:56:01.711Z,14.77
2018-11-26T23:58:50.318Z,12.10
